Terminal Aerodrome Forecast
Issued by NWS

Home | Current Version | Previous Version | Text Only | Print | Product List | Glossary On
Versions: 1 2 3 4 5 6 7 8 9 10 11 12 13 14 15 16 17 18 19 20 21
000
FTUS46 KPDT 271300 AAA
TAFALW
TAF AMD
KALW 271339Z 2714/2812 16005KT P6SM OVC080
     FM280000 20011KT P6SM VCSH OVC050
     FM280600 19012KT P6SM -RA BKN035 OVC045
     FM280800 20012KT 2SM RA BR BKN008 OVC015
      TEMPO 2808/2812 1/2SM +RA FG OVC004=

USA.gov is the U.S. government's official web portal to all federal, state and local government web resources and services.